sensor_id;sensor_type;location;lat;lon;timestamp;temperature;humidity
6468;DHT22;3267;48.794;9.928;2023-07-24T04:02:33;22.20;68.40
6468;DHT22;3267;48.794;9.928;2023-07-24T05:01:03;22.90;51.40
6468;DHT22;3267;48.794;9.928;2023-07-24T05:10:56;23.00;51.40
6468;DHT22;3267;48.794;9.928;2023-07-24T05:20:48;23.00;73.60
6468;DHT22;3267;48.794;9.928;2023-07-24T05:40:18;23.50;53.10
6468;DHT22;3267;48.794;9.928;2023-07-24T05:45:10;23.60;53.00
6468;DHT22;3267;48.794;9.928;2023-07-24T05:50:06;23.60;75.50
6468;DHT22;3267;48.794;9.928;2023-07-24T06:26:39;24.70;52.60
6468;DHT22;3267;48.794;9.928;2023-07-24T06:43:44;24.90;74.70
6468;DHT22;3267;48.794;9.928;2023-07-24T06:58:20;24.80;75.90
6468;DHT22;3267;48.794;9.928;2023-07-24T07:00:46;25.20;76.60
6468;DHT22;3267;48.794;9.928;2023-07-24T07:08:04;24.80;76.00
6468;DHT22;3267;48.794;9.928;2023-07-24T07:10:33;25.20;76.90
6468;DHT22;3267;48.794;9.928;2023-07-24T07:37:20;25.30;76.60
6468;DHT22;3267;48.794;9.928;2023-07-24T07:39:46;25.50;76.60
6468;DHT22;3267;48.794;9.928;2023-07-24T07:52:02;25.20;78.20
6468;DHT22;3267;48.794;9.928;2023-07-24T07:54:28;25.10;65.00
6468;DHT22;3267;48.794;9.928;2023-07-24T07:56:57;25.60;76.60
6468;DHT22;3267;48.794;9.928;2023-07-24T07:59:28;25.50;53.60
6468;DHT22;3267;48.794;9.928;2023-07-24T08:14:05;25.90;54.40
6468;DHT22;3267;48.794;9.928;2023-07-24T08:36:06;26.30;53.90
6468;DHT22;3267;48.794;9.928;2023-07-24T08:43:32;26.30;54.00
6468;DHT22;3267;48.794;9.928;2023-07-24T08:46:00;26.30;54.10
6468;DHT22;3267;48.794;9.928;2023-07-24T08:48:34;26.20;54.00
6468;DHT22;3267;48.794;9.928;2023-07-24T08:53:33;26.50;54.30
6468;DHT22;3267;48.794;9.928;2023-07-24T08:56:03;26.80;54.10
6468;DHT22;3267;48.794;9.928;2023-07-24T09:00:58;27.00;54.70
6468;DHT22;3267;48.794;9.928;2023-07-24T09:05:53;27.40;53.80
6468;DHT22;3267;48.794;9.928;2023-07-24T09:08:48;27.30;53.60
6468;DHT22;3267;48.794;9.928;2023-07-24T09:13:43;27.30;53.80
6468;DHT22;3267;48.794;9.928;2023-07-24T09:16:20;27.20;53.80
6468;DHT22;3267;48.794;9.928;2023-07-24T09:33:40;27.00;76.70
6468;DHT22;3267;48.794;9.928;2023-07-24T09:36:07;26.90;53.90
6468;DHT22;3267;48.794;9.928;2023-07-24T09:41:04;26.80;54.50
6468;DHT22;3267;48.794;9.928;2023-07-24T09:45:57;26.80;54.50
6468;DHT22;3267;48.794;9.928;2023-07-24T09:48:25;26.90;54.60
6468;DHT22;3267;48.794;9.928;2023-07-24T09:50:56;26.70;54.80
6468;DHT22;3267;48.794;9.928;2023-07-24T09:56:02;26.70;54.70
6468;DHT22;3267;48.794;9.928;2023-07-24T10:03:22;26.90;54.70
6468;DHT22;3267;48.794;9.928;2023-07-24T10:08:15;27.00;55.20
6468;DHT22;3267;48.794;9.928;2023-07-24T10:13:11;26.90;53.90
6468;DHT22;3267;48.794;9.928;2023-07-24T10:18:06;26.70;54.10
6468;DHT22;3267;48.794;9.928;2023-07-24T10:20:37;26.70;56.60
6468;DHT22;3267;48.794;9.928;2023-07-24T10:23:05;26.70;54.10
6468;DHT22;3267;48.794;9.928;2023-07-24T10:28:04;26.70;54.40
6468;DHT22;3267;48.794;9.928;2023-07-24T10:33:10;26.40;54.00
6468;DHT22;3267;48.794;9.928;2023-07-24T10:35:52;26.30;54.00
6468;DHT22;3267;48.794;9.928;2023-07-24T10:40:46;26.20;54.30
6468;DHT22;3267;48.794;9.928;2023-07-24T10:43:18;26.20;54.50
6468;DHT22;3267;48.794;9.928;2023-07-24T10:45:52;26.20;56.40
6468;DHT22;3267;48.794;9.928;2023-07-24T10:48:23;26.40;55.70
6468;DHT22;3267;48.794;9.928;2023-07-24T11:00:46;25.90;56.00
6468;DHT22;3267;48.794;9.928;2023-07-24T11:03:14;25.90;57.20
6468;DHT22;3267;48.794;9.928;2023-07-24T11:05:44;25.90;57.60
6468;DHT22;3267;48.794;9.928;2023-07-24T11:08:15;25.90;57.70
6468;DHT22;3267;48.794;9.928;2023-07-24T11:10:52;25.80;58.10
6468;DHT22;3267;48.794;9.928;2023-07-24T11:13:23;25.80;58.50
6468;DHT22;3267;48.794;9.928;2023-07-24T11:20:47;25.60;58.80
6468;DHT22;3267;48.794;9.928;2023-07-24T11:25:40;25.40;58.80
6468;DHT22;3267;48.794;9.928;2023-07-24T11:28:11;25.40;56.20
6468;DHT22;3267;48.794;9.928;2023-07-24T11:33:06;25.60;62.30
6468;DHT22;3267;48.794;9.928;2023-07-24T11:40:32;25.70;63.90
6468;DHT22;3267;48.794;9.928;2023-07-24T11:50:22;25.30;60.00
6468;DHT22;3267;48.794;9.928;2023-07-24T11:58:00;25.00;58.60
6468;DHT22;3267;48.794;9.928;2023-07-24T12:10:12;25.20;65.70
6468;DHT22;3267;48.794;9.928;2023-07-24T12:12:46;25.30;66.10
6468;DHT22;3267;48.794;9.928;2023-07-24T12:17:40;25.60;63.80
6468;DHT22;3267;48.794;9.928;2023-07-24T12:20:07;25.80;64.10
6468;DHT22;3267;48.794;9.928;2023-07-24T12:22:37;25.90;62.90
6468;DHT22;3267;48.794;9.928;2023-07-24T12:34:50;26.40;58.00
6468;DHT22;3267;48.794;9.928;2023-07-24T12:37:17;26.40;57.80
6468;DHT22;3267;48.794;9.928;2023-07-24T12:39:43;26.50;57.70
6468;DHT22;3267;48.794;9.928;2023-07-24T12:49:27;26.70;56.40
6468;DHT22;3267;48.794;9.928;2023-07-24T12:51:53;26.80;57.20
6468;DHT22;3267;48.794;9.928;2023-07-24T12:54:18;26.90;57.20
6468;DHT22;3267;48.794;9.928;2023-07-24T12:56:46;27.00;57.00
6468;DHT22;3267;48.794;9.928;2023-07-24T12:59:11;27.10;57.10
6468;DHT22;3267;48.794;9.928;2023-07-24T13:01:37;27.30;57.20
6468;DHT22;3267;48.794;9.928;2023-07-24T13:04:03;27.40;57.70
6468;DHT22;3267;48.794;9.928;2023-07-24T13:06:28;27.50;57.10
6468;DHT22;3267;48.794;9.928;2023-07-24T13:08:54;28.70;58.20
6468;DHT22;3267;48.794;9.928;2023-07-24T13:11:19;27.70;56.40
6468;DHT22;3267;48.794;9.928;2023-07-24T13:13:45;27.80;56.90
6468;DHT22;3267;48.794;9.928;2023-07-24T13:16:11;28.00;56.40
6468;DHT22;3267;48.794;9.928;2023-07-24T13:18:36;28.20;57.20
6468;DHT22;3267;48.794;9.928;2023-07-24T13:21:02;28.90;56.60
6468;DHT22;3267;48.794;9.928;2023-07-24T13:23:28;28.40;55.70
6468;DHT22;3267;48.794;9.928;2023-07-24T13:25:53;28.40;55.20
6468;DHT22;3267;48.794;9.928;2023-07-24T13:28:19;28.50;55.20
6468;DHT22;3267;48.794;9.928;2023-07-24T13:30:46;28.40;55.00
6468;DHT22;3267;48.794;9.928;2023-07-24T13:33:12;28.50;55.00
6468;DHT22;3267;48.794;9.928;2023-07-24T13:35:37;28.40;55.80
6468;DHT22;3267;48.794;9.928;2023-07-24T13:38:03;28.40;55.00
6468;DHT22;3267;48.794;9.928;2023-07-24T13:40:28;28.70;56.10
6468;DHT22;3267;48.794;9.928;2023-07-24T13:42:54;28.70;55.00
6468;DHT22;3267;48.794;9.928;2023-07-24T13:45:20;29.80;55.40
6468;DHT22;3267;48.794;9.928;2023-07-24T13:47:45;29.20;54.60
6468;DHT22;3267;48.794;9.928;2023-07-24T13:50:11;29.10;54.00
6468;DHT22;3267;48.794;9.928;2023-07-24T13:52:36;29.00;53.90
6468;DHT22;3267;48.794;9.928;2023-07-24T13:55:03;30.30;54.50
6468;DHT22;3267;48.794;9.928;2023-07-24T13:57:28;28.90;53.70
6468;DHT22;3267;48.794;9.928;2023-07-24T13:59:54;28.80;54.00
6468;DHT22;3267;48.794;9.928;2023-07-24T14:02:21;28.70;54.00
6468;DHT22;3267;48.794;9.928;2023-07-24T14:04:46;28.60;54.20
6468;DHT22;3267;48.794;9.928;2023-07-24T14:07:12;28.60;56.00
6468;DHT22;3267;48.794;9.928;2023-07-24T14:09:39;28.50;54.90
6468;DHT22;3267;48.794;9.928;2023-07-24T14:12:05;28.40;54.70
6468;DHT22;3267;48.794;9.928;2023-07-24T14:14:30;28.30;54.80
6468;DHT22;3267;48.794;9.928;2023-07-24T14:16:57;28.20;54.80
6468;DHT22;3267;48.794;9.928;2023-07-24T14:19:22;28.20;54.90
6468;DHT22;3267;48.794;9.928;2023-07-24T14:21:51;28.20;54.80
6468;DHT22;3267;48.794;9.928;2023-07-24T14:24:17;28.20;54.70
6468;DHT22;3267;48.794;9.928;2023-07-24T14:26:45;28.30;54.80
6468;DHT22;3267;48.794;9.928;2023-07-24T14:29:11;28.10;54.30
6468;DHT22;3267;48.794;9.928;2023-07-24T14:31:37;28.20;54.50
6468;DHT22;3267;48.794;9.928;2023-07-24T14:34:03;28.10;54.50
6468;DHT22;3267;48.794;9.928;2023-07-24T14:36:29;28.10;54.70
6468;DHT22;3267;48.794;9.928;2023-07-24T14:39:03;28.10;54.70
6468;DHT22;3267;48.794;9.928;2023-07-24T14:41:29;28.00;54.50
6468;DHT22;3267;48.794;9.928;2023-07-24T14:43:54;27.90;54.40
6468;DHT22;3267;48.794;9.928;2023-07-24T14:46:20;27.80;54.60
6468;DHT22;3267;48.794;9.928;2023-07-24T14:48:46;27.70;54.80
6468;DHT22;3267;48.794;9.928;2023-07-24T14:51:11;27.80;54.70
6468;DHT22;3267;48.794;9.928;2023-07-24T14:53:37;27.80;54.80
6468;DHT22;3267;48.794;9.928;2023-07-24T14:56:03;27.80;54.80
6468;DHT22;3267;48.794;9.928;2023-07-24T14:58:29;27.70;55.00
6468;DHT22;3267;48.794;9.928;2023-07-24T15:00:55;27.70;55.50
6468;DHT22;3267;48.794;9.928;2023-07-24T15:03:22;27.80;55.30
6468;DHT22;3267;48.794;9.928;2023-07-24T15:05:48;28.00;55.90
6468;DHT22;3267;48.794;9.928;2023-07-24T15:08:13;28.00;55.50
6468;DHT22;3267;48.794;9.928;2023-07-24T15:10:39;28.10;56.40
6468;DHT22;3267;48.794;9.928;2023-07-24T15:13:05;28.10;55.50
6468;DHT22;3267;48.794;9.928;2023-07-24T15:15:30;28.20;55.50
6468;DHT22;3267;48.794;9.928;2023-07-24T15:17:59;28.20;55.20
6468;DHT22;3267;48.794;9.928;2023-07-24T15:20:24;28.30;55.30
6468;DHT22;3267;48.794;9.928;2023-07-24T15:22:50;28.40;55.20
6468;DHT22;3267;48.794;9.928;2023-07-24T15:25:21;28.40;55.40
6468;DHT22;3267;48.794;9.928;2023-07-24T15:27:47;28.30;54.70
6468;DHT22;3267;48.794;9.928;2023-07-24T15:30:13;28.30;55.20
6468;DHT22;3267;48.794;9.928;2023-07-24T15:32:39;28.20;55.10
6468;DHT22;3267;48.794;9.928;2023-07-24T15:35:05;28.00;54.80
6468;DHT22;3267;48.794;9.928;2023-07-24T15:37:31;28.00;55.20
6468;DHT22;3267;48.794;9.928;2023-07-24T15:39:58;27.90;55.60
6468;DHT22;3267;48.794;9.928;2023-07-24T15:42:23;28.70;55.80
6468;DHT22;3267;48.794;9.928;2023-07-24T15:44:50;27.60;54.80
6468;DHT22;3267;48.794;9.928;2023-07-24T15:47:16;27.70;55.20
6468;DHT22;3267;48.794;9.928;2023-07-24T15:49:42;27.60;55.20
6468;DHT22;3267;48.794;9.928;2023-07-24T15:52:08;27.40;55.30
6468;DHT22;3267;48.794;9.928;2023-07-24T15:54:35;27.30;55.50
6468;DHT22;3267;48.794;9.928;2023-07-24T15:57:01;27.20;55.60
6468;DHT22;3267;48.794;9.928;2023-07-24T15:59:27;27.20;55.80
6468;DHT22;3267;48.794;9.928;2023-07-24T16:01:53;27.10;55.80
6468;DHT22;3267;48.794;9.928;2023-07-24T16:04:19;27.20;56.70
6468;DHT22;3267;48.794;9.928;2023-07-24T16:06:45;27.20;56.10
6468;DHT22;3267;48.794;9.928;2023-07-24T16:09:11;27.10;55.80
6468;DHT22;3267;48.794;9.928;2023-07-24T16:11:36;27.00;55.90
6468;DHT22;3267;48.794;9.928;2023-07-24T16:14:02;27.20;56.80
6468;DHT22;3267;48.794;9.928;2023-07-24T16:16:29;26.90;56.20
6468;DHT22;3267;48.794;9.928;2023-07-24T16:19:30;26.70;56.20
6468;DHT22;3267;48.794;9.928;2023-07-24T16:21:56;26.70;56.00
6468;DHT22;3267;48.794;9.928;2023-07-24T16:24:22;26.60;56.40
6468;DHT22;3267;48.794;9.928;2023-07-24T16:26:48;26.50;56.40
6468;DHT22;3267;48.794;9.928;2023-07-24T16:29:15;26.50;56.40
6468;DHT22;3267;48.794;9.928;2023-07-24T16:31:41;26.70;57.30
6468;DHT22;3267;48.794;9.928;2023-07-24T16:34:07;26.60;56.50
6468;DHT22;3267;48.794;9.928;2023-07-24T16:36:33;26.60;56.80
6468;DHT22;3267;48.794;9.928;2023-07-24T16:39:01;26.90;57.70
6468;DHT22;3267;48.794;9.928;2023-07-24T16:41:26;26.60;56.30
6468;DHT22;3267;48.794;9.928;2023-07-24T16:43:52;26.60;57.30
6468;DHT22;3267;48.794;9.928;2023-07-24T16:46:18;26.60;56.70
6468;DHT22;3267;48.794;9.928;2023-07-24T16:48:43;26.30;56.40
6468;DHT22;3267;48.794;9.928;2023-07-24T16:51:16;26.50;56.70
6468;DHT22;3267;48.794;9.928;2023-07-24T16:53:42;26.40;56.60
6468;DHT22;3267;48.794;9.928;2023-07-24T16:56:08;26.40;56.90
6468;DHT22;3267;48.794;9.928;2023-07-24T16:58:34;26.50;56.70
6468;DHT22;3267;48.794;9.928;2023-07-24T17:01:00;26.50;56.80
6468;DHT22;3267;48.794;9.928;2023-07-24T17:03:27;26.50;56.70
6468;DHT22;3267;48.794;9.928;2023-07-24T17:05:52;26.60;56.80
6468;DHT22;3267;48.794;9.928;2023-07-24T17:08:18;26.70;56.70
6468;DHT22;3267;48.794;9.928;2023-07-24T17:10:48;26.60;56.50
6468;DHT22;3267;48.794;9.928;2023-07-24T17:13:14;26.60;56.60
6468;DHT22;3267;48.794;9.928;2023-07-24T17:15:41;26.60;56.50
6468;DHT22;3267;48.794;9.928;2023-07-24T17:18:07;26.70;56.80
6468;DHT22;3267;48.794;9.928;2023-07-24T17:20:33;27.00;56.40
6468;DHT22;3267;48.794;9.928;2023-07-24T17:22:59;27.30;56.30
6468;DHT22;3267;48.794;9.928;2023-07-24T17:25:24;27.60;56.40
6468;DHT22;3267;48.794;9.928;2023-07-24T17:27:51;28.10;55.60
6468;DHT22;3267;48.794;9.928;2023-07-24T17:30:17;28.80;55.00
6468;DHT22;3267;48.794;9.928;2023-07-24T17:32:42;29.10;54.20
6468;DHT22;3267;48.794;9.928;2023-07-24T17:35:19;29.10;53.60
6468;DHT22;3267;48.794;9.928;2023-07-24T17:37:45;29.20;53.60
6468;DHT22;3267;48.794;9.928;2023-07-24T17:40:11;28.60;53.80
6468;DHT22;3267;48.794;9.928;2023-07-24T17:42:36;28.30;54.10
6468;DHT22;3267;48.794;9.928;2023-07-24T17:45:06;28.00;54.40
6468;DHT22;3267;48.794;9.928;2023-07-24T17:47:33;27.70;54.80
6468;DHT22;3267;48.794;9.928;2023-07-24T17:49:59;27.50;55.00
6468;DHT22;3267;48.794;9.928;2023-07-24T17:52:25;27.30;55.30
6468;DHT22;3267;48.794;9.928;2023-07-24T17:54:50;27.10;55.50
6468;DHT22;3267;48.794;9.928;2023-07-24T17:57:17;26.90;55.60
6468;DHT22;3267;48.794;9.928;2023-07-24T17:59:43;26.80;55.60
6468;DHT22;3267;48.794;9.928;2023-07-24T18:02:09;26.70;55.80
6468;DHT22;3267;48.794;9.928;2023-07-24T18:04:35;26.50;56.20
6468;DHT22;3267;48.794;9.928;2023-07-24T18:07:01;26.40;56.20
6468;DHT22;3267;48.794;9.928;2023-07-24T18:09:27;26.30;56.50
6468;DHT22;3267;48.794;9.928;2023-07-24T18:11:52;26.20;56.70
6468;DHT22;3267;48.794;9.928;2023-07-24T18:14:18;26.10;56.60
6468;DHT22;3267;48.794;9.928;2023-07-24T18:16:46;25.90;57.00
6468;DHT22;3267;48.794;9.928;2023-07-24T18:19:12;25.80;56.90
6468;DHT22;3267;48.794;9.928;2023-07-24T18:21:37;25.70;57.40
6468;DHT22;3267;48.794;9.928;2023-07-24T18:24:04;25.50;57.70
6468;DHT22;3267;48.794;9.928;2023-07-24T18:26:33;25.40;57.90
6468;DHT22;3267;48.794;9.928;2023-07-24T18:29:00;25.30;58.60
6468;DHT22;3267;48.794;9.928;2023-07-24T18:31:29;25.10;58.20
6468;DHT22;3267;48.794;9.928;2023-07-24T18:33:55;25.10;58.40
6468;DHT22;3267;48.794;9.928;2023-07-24T18:36:21;25.00;58.30
6468;DHT22;3267;48.794;9.928;2023-07-24T18:38:46;25.00;58.70
6468;DHT22;3267;48.794;9.928;2023-07-24T18:41:12;24.90;58.60
6468;DHT22;3267;48.794;9.928;2023-07-24T18:43:39;24.90;58.40
6468;DHT22;3267;48.794;9.928;2023-07-24T18:46:05;24.90;58.70
6468;DHT22;3267;48.794;9.928;2023-07-24T18:48:30;24.90;58.60
6468;DHT22;3267;48.794;9.928;2023-07-24T18:50:57;24.80;58.70
6468;DHT22;3267;48.794;9.928;2023-07-24T18:53:23;24.80;59.00
6468;DHT22;3267;48.794;9.928;2023-07-24T18:55:48;24.70;58.90
6468;DHT22;3267;48.794;9.928;2023-07-24T18:58:14;24.70;58.70
6468;DHT22;3267;48.794;9.928;2023-07-24T19:00:40;24.60;60.10
6468;DHT22;3267;48.794;9.928;2023-07-24T19:03:05;24.50;59.70
6468;DHT22;3267;48.794;9.928;2023-07-24T19:05:31;24.50;59.90
6468;DHT22;3267;48.794;9.928;2023-07-24T19:07:57;24.50;59.80
6468;DHT22;3267;48.794;9.928;2023-07-24T19:10:22;24.30;59.80
6468;DHT22;3267;48.794;9.928;2023-07-24T19:12:48;24.30;60.10
6468;DHT22;3267;48.794;9.928;2023-07-24T19:15:14;24.20;60.10
6468;DHT22;3267;48.794;9.928;2023-07-24T19:17:40;24.10;60.00
6468;DHT22;3267;48.794;9.928;2023-07-24T19:20:11;24.00;59.70
6468;DHT22;3267;48.794;9.928;2023-07-24T19:22:38;24.00;59.90
6468;DHT22;3267;48.794;9.928;2023-07-24T19:25:05;23.90;60.30
6468;DHT22;3267;48.794;9.928;2023-07-24T19:27:31;23.90;60.30
6468;DHT22;3267;48.794;9.928;2023-07-24T19:29:57;24.60;60.90
6468;DHT22;3267;48.794;9.928;2023-07-24T19:32:24;24.50;61.70
6468;DHT22;3267;48.794;9.928;2023-07-24T19:34:51;23.80;60.90
6468;DHT22;3267;48.794;9.928;2023-07-24T19:37:17;23.70;61.40
6468;DHT22;3267;48.794;9.928;2023-07-24T19:39:42;24.50;61.90
6468;DHT22;3267;48.794;9.928;2023-07-24T19:42:08;23.60;60.40
6468;DHT22;3267;48.794;9.928;2023-07-24T19:44:35;23.60;60.20
6468;DHT22;3267;48.794;9.928;2023-07-24T19:47:00;23.50;60.10
6468;DHT22;3267;48.794;9.928;2023-07-24T19:49:26;23.70;60.40
6468;DHT22;3267;48.794;9.928;2023-07-24T19:51:53;23.40;60.00
6468;DHT22;3267;48.794;9.928;2023-07-24T19:54:19;23.30;59.80
6468;DHT22;3267;48.794;9.928;2023-07-24T19:56:45;23.30;59.70
6468;DHT22;3267;48.794;9.928;2023-07-24T19:59:10;23.10;60.00
6468;DHT22;3267;48.794;9.928;2023-07-24T20:01:36;23.10;59.80
6468;DHT22;3267;48.794;9.928;2023-07-24T20:04:02;23.20;59.80
6468;DHT22;3267;48.794;9.928;2023-07-24T20:06:28;23.00;60.10
6468;DHT22;3267;48.794;9.928;2023-07-24T20:08:53;23.00;60.10
6468;DHT22;3267;48.794;9.928;2023-07-24T20:11:19;23.60;60.70
6468;DHT22;3267;48.794;9.928;2023-07-24T20:13:45;22.90;59.70
6468;DHT22;3267;48.794;9.928;2023-07-24T20:16:10;24.70;61.50
6468;DHT22;3267;48.794;9.928;2023-07-24T20:18:36;23.60;60.00
6468;DHT22;3267;48.794;9.928;2023-07-24T20:21:02;22.90;59.60
6468;DHT22;3267;48.794;9.928;2023-07-24T20:23:27;22.70;59.40
6468;DHT22;3267;48.794;9.928;2023-07-24T20:25:53;22.70;59.50
6468;DHT22;3267;48.794;9.928;2023-07-24T20:28:19;22.50;59.20
6468;DHT22;3267;48.794;9.928;2023-07-24T20:30:46;22.60;60.30
6468;DHT22;3267;48.794;9.928;2023-07-24T20:33:13;24.40;61.30
6468;DHT22;3267;48.794;9.928;2023-07-24T20:35:41;24.90;61.90
6468;DHT22;3267;48.794;9.928;2023-07-24T20:38:07;22.50;59.20
6468;DHT22;3267;48.794;9.928;2023-07-24T20:40:33;22.50;57.80
6468;DHT22;3267;48.794;9.928;2023-07-24T20:43:00;23.50;60.10
6468;DHT22;3267;48.794;9.928;2023-07-24T20:45:26;22.50;59.10
6468;DHT22;3267;48.794;9.928;2023-07-24T20:47:51;22.50;59.40
6468;DHT22;3267;48.794;9.928;2023-07-24T20:50:17;24.20;60.70
6468;DHT22;3267;48.794;9.928;2023-07-24T20:52:42;23.30;60.00
6468;DHT22;3267;48.794;9.928;2023-07-24T20:55:08;22.60;59.80
6468;DHT22;3267;48.794;9.928;2023-07-24T20:57:34;22.70;60.40
6468;DHT22;3267;48.794;9.928;2023-07-24T20:59:59;23.50;61.50
6468;DHT22;3267;48.794;9.928;2023-07-24T21:02:25;22.70;60.40
6468;DHT22;3267;48.794;9.928;2023-07-24T21:04:51;22.70;60.00
6468;DHT22;3267;48.794;9.928;2023-07-24T21:07:20;22.80;60.80
6468;DHT22;3267;48.794;9.928;2023-07-24T21:09:48;22.80;60.70
6468;DHT22;3267;48.794;9.928;2023-07-24T21:12:13;22.70;60.00
6468;DHT22;3267;48.794;9.928;2023-07-24T21:14:39;22.70;59.80
6468;DHT22;3267;48.794;9.928;2023-07-24T21:19:31;22.60;59.10
6468;DHT22;3267;48.794;9.928;2023-07-24T21:21:57;22.50;59.70
6468;DHT22;3267;48.794;9.928;2023-07-24T21:24:23;22.50;59.70
